Time;durP1;ratioP1;P1;durP2;ratioP2;P2;SDS_P1;SDS_P2;PMS_P1;PMS_P2;Temp;Humidity;BMP_temperature;BMP_pressure;BME280_temperature;BME280_humidity;BME280_pressure;Samples;Min_cycle;Max_cycle;Signal;HPM_P1;HPM_P2
2021/05/28 00:00:40;;;;;;;1999.90;999.90;;;;;;;16.07;100.00;95440.56;5070450;28;20211;-61
2021/05/28 00:03:10;;;;;;;1999.90;999.90;;;;;;;16.04;100.00;95435.97;5070729;28;20245;-61
2021/05/28 00:05:37;;;;;;;1999.90;999.90;;;;;;;15.97;100.00;95425.25;5070388;28;20200;-60
2021/05/28 00:08:04;;;;;;;1999.90;999.90;;;;;;;15.90;100.00;95429.19;5070294;28;20245;-62
2021/05/28 00:10:31;;;;;;;1999.90;999.90;;;;;;;15.81;100.00;95425.16;5070285;28;20212;-61
2021/05/28 00:12:58;;;;;;;1999.90;999.90;;;;;;;15.61;100.00;95420.78;5070576;28;20188;-61
2021/05/28 00:15:25;;;;;;;1999.90;999.90;;;;;;;15.59;100.00;95415.13;5070158;28;20236;-60
2021/05/28 00:17:52;;;;;;;1999.90;999.90;;;;;;;15.57;100.00;95406.81;5070281;28;20569;-60
2021/05/28 00:20:20;;;;;;;1999.90;999.90;;;;;;;15.58;100.00;95403.88;5069981;28;20225;-60
2021/05/28 00:22:47;;;;;;;1999.90;999.90;;;;;;;15.65;100.00;95411.94;5070352;28;20203;-60
2021/05/28 00:25:14;;;;;;;1999.90;999.90;;;;;;;15.61;100.00;95411.06;5070392;28;20581;-60
2021/05/28 00:27:41;;;;;;;1999.90;999.90;;;;;;;15.55;100.00;95408.97;5070619;28;20212;-60
2021/05/28 00:30:09;;;;;;;1999.90;999.90;;;;;;;15.52;100.00;95407.78;5070278;28;20278;-60
2021/05/28 00:32:36;;;;;;;1999.90;999.90;;;;;;;15.42;100.00;95397.72;5069976;28;20671;-61
2021/05/28 00:35:03;;;;;;;1999.90;999.90;;;;;;;15.33;100.00;95392.56;5069849;28;20297;-61
2021/05/28 00:37:31;;;;;;;1999.90;999.90;;;;;;;15.40;100.00;95392.78;5070210;28;20678;-60
2021/05/28 00:39:57;;;;;;;1999.90;999.90;;;;;;;15.45;100.00;95395.19;5070202;28;20196;-61
2021/05/28 00:42:24;;;;;;;1999.90;999.90;;;;;;;15.36;100.00;95397.16;5070313;28;20651;-60
2021/05/28 00:44:51;;;;;;;1999.90;999.90;;;;;;;15.31;100.00;95394.75;5069936;28;20250;-61
2021/05/28 00:47:18;;;;;;;1999.90;999.90;;;;;;;15.11;100.00;95400.81;5070036;28;20192;-60
2021/05/28 00:49:44;;;;;;;1999.90;999.90;;;;;;;14.99;100.00;95398.19;5069948;28;20219;-60
2021/05/28 00:52:13;;;;;;;1999.90;999.90;;;;;;;14.87;100.00;95398.13;5069797;28;20902;-61
2021/05/28 00:54:41;;;;;;;1999.90;999.90;;;;;;;14.86;100.00;95396.59;5069876;28;20253;-60
2021/05/28 00:57:09;;;;;;;1999.90;999.90;;;;;;;14.78;100.00;95392.22;5069863;28;20659;-61
2021/05/28 00:59:37;;;;;;;1999.90;999.90;;;;;;;14.73;100.00;95387.19;5069851;28;20192;-61
2021/05/28 01:02:05;;;;;;;1999.90;999.90;;;;;;;14.70;100.00;95387.81;5069910;28;20200;-60
2021/05/28 01:04:31;;;;;;;1999.90;999.90;;;;;;;14.72;100.00;95383.78;5072255;28;20242;-61
2021/05/28 01:06:58;;;;;;;1999.90;999.90;;;;;;;14.74;100.00;95380.88;5073743;28;20584;-60
2021/05/28 01:09:25;;;;;;;1999.90;999.90;;;;;;;14.68;100.00;95376.91;5074061;28;20200;-61
2021/05/28 01:11:53;;;;;;;1999.90;999.90;;;;;;;14.64;100.00;95376.81;5073584;28;20200;-61
2021/05/28 01:14:20;;;;;;;1999.90;999.90;;;;;;;14.58;100.00;95372.84;5073667;28;20740;-60
2021/05/28 01:16:46;;;;;;;1999.90;999.90;;;;;;;14.61;100.00;95364.34;5073916;28;20542;-61
2021/05/28 01:19:14;;;;;;;1999.90;999.90;;;;;;;14.63;100.00;95376.03;5073540;28;20984;-60
2021/05/28 01:21:42;;;;;;;1999.90;999.90;;;;;;;14.56;100.00;95373.16;5073341;28;20228;-61
2021/05/28 01:24:11;;;;;;;1999.90;999.90;;;;;;;14.56;100.00;95377.63;5073699;28;20228;-60
2021/05/28 01:26:38;;;;;;;1999.90;999.90;;;;;;;14.52;100.00;95374.88;5073448;28;20201;-61
2021/05/28 01:29:04;;;;;;;1999.90;999.90;;;;;;;14.48;100.00;95381.09;5073347;28;20196;-61
2021/05/28 01:31:31;;;;;;;1999.90;999.90;;;;;;;14.39;100.00;95381.16;5073464;28;20200;-60
2021/05/28 01:33:58;;;;;;;1999.90;999.90;;;;;;;14.29;100.00;95373.66;5073137;28;20189;-61
2021/05/28 01:36:25;;;;;;;1999.90;999.90;;;;;;;14.20;100.00;95378.16;5073417;28;20223;-60
2021/05/28 01:38:52;;;;;;;1999.90;999.90;;;;;;;14.34;100.00;95365.63;5073541;28;20246;-60
2021/05/28 01:41:20;;;;;;;1999.90;999.90;;;;;;;14.38;100.00;95369.16;5073537;28;20669;-62
2021/05/28 01:43:46;;;;;;;1999.90;999.90;;;;;;;14.26;100.00;95365.69;5073438;28;20227;-60
2021/05/28 01:46:13;;;;;;;1999.90;999.90;;;;;;;14.16;100.00;95369.44;5073138;28;20188;-61
2021/05/28 01:48:41;;;;;;;1999.90;999.90;;;;;;;14.18;100.00;95365.44;5073544;28;20201;-62
2021/05/28 01:51:08;;;;;;;1999.90;999.90;;;;;;;14.23;100.00;95361.88;5073722;28;20212;-60
2021/05/28 01:53:35;;;;;;;1999.90;999.90;;;;;;;14.34;100.00;95360.41;5073324;28;20246;-61
2021/05/28 01:56:05;;;;;;;1999.90;999.90;;;;;;;14.31;100.00;95358.41;5072962;28;20225;-60
2021/05/28 01:58:32;;;;;;;1999.90;999.90;;;;;;;14.29;100.00;95347.53;5073106;28;20594;-60
2021/05/28 02:00:59;;;;;;;1999.90;999.90;;;;;;;14.19;100.00;95346.06;5073794;28;20196;-61
2021/05/28 02:03:27;;;;;;;1999.90;999.90;;;;;;;14.14;100.00;95337.66;5073039;28;20279;-60
2021/05/28 02:05:54;;;;;;;1999.90;999.90;;;;;;;14.21;100.00;95325.59;5072804;28;20196;-60
2021/05/28 02:08:20;;;;;;;1999.90;999.90;;;;;;;14.21;100.00;95327.44;5072835;28;20195;-59
2021/05/28 02:10:47;;;;;;;1999.90;999.90;;;;;;;14.09;100.00;95330.00;5073024;28;20196;-60
2021/05/28 02:13:14;;;;;;;1999.90;999.90;;;;;;;13.90;100.00;95333.03;5072902;28;20228;-60
2021/05/28 02:15:42;;;;;;;1999.90;999.90;;;;;;;13.88;100.00;95331.84;5072617;28;20224;-61
2021/05/28 02:18:09;;;;;;;1999.90;999.90;;;;;;;13.77;100.00;95329.59;5072882;28;20197;-58
2021/05/28 02:20:36;;;;;;;1999.90;999.90;;;;;;;13.85;100.00;95335.09;5072304;28;20657;-61
2021/05/28 02:23:03;;;;;;;1999.90;999.90;;;;;;;13.87;100.00;95332.91;5072461;28;20591;-61
2021/05/28 02:25:30;;;;;;;1999.90;999.90;;;;;;;13.80;100.00;95330.78;5072417;28;20224;-60
2021/05/28 02:27:57;;;;;;;1999.90;999.90;;;;;;;13.78;100.00;95328.50;5072510;28;20205;-61
2021/05/28 02:30:24;;;;;;;1999.90;999.90;;;;;;;13.89;100.00;95328.91;5072371;28;20196;-60
2021/05/28 02:32:51;;;;;;;1999.90;999.90;;;;;;;13.93;100.00;95323.81;5072277;28;20192;-61
2021/05/28 02:35:18;;;;;;;1999.90;999.90;;;;;;;14.00;100.00;95326.66;5072141;28;20246;-61
2021/05/28 02:37:45;;;;;;;1999.90;999.90;;;;;;;14.06;100.00;95320.94;5072296;28;20735;-60
2021/05/28 02:40:13;;;;;;;1999.90;999.90;;;;;;;14.18;100.00;95325.47;5071977;28;20656;-59
2021/05/28 02:42:40;;;;;;;1999.90;999.90;;;;;;;14.20;100.00;95334.50;5071955;28;20236;-60
2021/05/28 02:45:08;;;;;;;1999.90;999.90;;;;;;;14.12;100.00;95340.56;5072069;28;20271;-59
2021/05/28 02:47:35;;;;;;;1999.90;999.90;;;;;;;14.26;100.00;95342.91;5071904;28;20208;-60
2021/05/28 02:50:04;;;;;;;1999.90;999.90;;;;;;;14.29;100.00;95350.13;5071878;28;20228;-62
2021/05/28 02:52:30;;;;;;;1999.90;999.90;;;;;;;14.40;100.00;95353.13;5071916;28;20277;-61
2021/05/28 02:54:57;;;;;;;1999.90;999.90;;;;;;;14.49;100.00;95365.06;5071669;28;20224;-60
2021/05/28 02:57:24;;;;;;;1999.90;999.90;;;;;;;14.38;100.00;95371.00;5071934;28;20246;-61
2021/05/28 02:59:51;;;;;;;1999.90;999.90;;;;;;;14.41;100.00;95378.97;5071723;28;20181;-62
2021/05/28 03:02:18;;;;;;;1999.90;999.90;;;;;;;14.46;100.00;95373.53;5071551;28;20196;-61
2021/05/28 03:04:45;;;;;;;1999.90;999.90;;;;;;;14.48;100.00;95374.00;5071716;28;20273;-60
2021/05/28 03:07:13;;;;;;;1999.90;999.90;;;;;;;14.52;100.00;95374.88;5071556;28;20188;-61
2021/05/28 03:09:40;;;;;;;1999.90;999.90;;;;;;;14.60;100.00;95371.44;5071518;28;20189;-62
2021/05/28 03:12:08;;;;;;;1999.90;999.90;;;;;;;14.63;100.00;95380.50;5071667;28;20192;-61
2021/05/28 03:14:34;;;;;;;1999.90;999.90;;;;;;;14.64;100.00;95377.53;5071326;28;20303;-61
2021/05/28 03:17:01;;;;;;;1999.90;999.90;;;;;;;14.63;100.00;95380.50;5071345;28;20550;-61
2021/05/28 03:19:32;;;;;;;1999.90;999.90;;;;;;;14.70;100.00;95380.72;5071607;28;20208;-61
2021/05/28 03:24:44;;;;;;;1999.90;999.90;;;;;;;14.59;100.00;95385.56;5071040;28;20220;-61
2021/05/28 03:27:11;;;;;;;1999.90;999.90;;;;;;;14.53;100.00;95381.66;5070586;28;20243;-61
2021/05/28 03:29:38;;;;;;;1999.90;999.90;;;;;;;14.60;100.00;95373.28;5071062;28;20193;-62
2021/05/28 03:32:05;;;;;;;1999.90;999.90;;;;;;;14.55;100.00;95379.47;5071295;28;20207;-62
2021/05/28 03:34:32;;;;;;;1999.90;999.90;;;;;;;14.61;100.00;95383.41;5070898;28;20269;-61
2021/05/28 03:36:59;;;;;;;1999.90;999.90;;;;;;;14.65;100.00;95388.75;5071269;28;20202;-61
2021/05/28 03:39:27;;;;;;;1999.90;999.90;;;;;;;14.64;100.00;95393.22;5071355;28;20201;-61
2021/05/28 03:41:54;;;;;;;1999.90;999.90;;;;;;;14.64;100.00;95403.69;5070843;28;20264;-61
2021/05/28 03:44:21;;;;;;;1999.90;999.90;;;;;;;14.71;100.00;95410.25;5070886;28;20283;-62
2021/05/28 03:46:48;;;;;;;1999.90;999.90;;;;;;;14.67;100.00;95412.00;5070759;28;20197;-61
2021/05/28 03:49:15;;;;;;;1999.90;999.90;;;;;;;14.74;100.00;95412.25;5070708;28;20279;-61
2021/05/28 03:51:42;;;;;;;1999.90;999.90;;;;;;;14.84;100.00;95412.63;5071120;28;20560;-62
2021/05/28 03:54:08;;;;;;;1999.90;999.90;;;;;;;14.99;100.00;95419.09;5070697;28;20201;-61
2021/05/28 03:56:35;;;;;;;1999.90;999.90;;;;;;;15.02;100.00;95403.50;5070705;28;20228;-61
2021/05/28 03:59:04;;;;;;;1999.90;999.90;;;;;;;15.07;100.00;95408.53;5070712;28;20200;-61
2021/05/28 04:01:30;;;;;;;1999.90;999.90;;;;;;;15.14;100.00;95408.03;5070488;28;20196;-61
2021/05/28 04:03:57;;;;;;;1999.90;999.90;;;;;;;15.19;100.00;95413.06;5070473;28;20573;-61
2021/05/28 04:06:24;;;;;;;1999.90;999.90;;;;;;;15.20;100.00;95398.84;5070482;28;20197;-61
2021/05/28 04:08:51;;;;;;;1999.90;999.90;;;;;;;15.26;100.00;95396.81;5070393;28;20748;-61
2021/05/28 04:11:18;;;;;;;1999.90;999.90;;;;;;;15.37;100.00;95393.44;5070299;28;20199;-60
2021/05/28 04:13:45;;;;;;;1999.90;999.90;;;;;;;15.36;100.00;95391.16;5070343;28;20566;-61
2021/05/28 04:16:12;;;;;;;1999.90;999.90;;;;;;;15.46;100.00;95386.25;5070176;28;20224;-61
2021/05/28 04:18:39;;;;;;;1999.90;999.90;;;;;;;15.41;100.00;95385.69;5070517;28;20728;-60
2021/05/28 04:21:06;;;;;;;1999.90;999.90;;;;;;;15.46;100.00;95383.63;5070247;28;20240;-61
2021/05/28 04:23:33;;;;;;;1999.90;999.90;;;;;;;15.53;100.00;95374.50;5070095;28;20283;-62
2021/05/28 04:26:00;;;;;;;1999.90;999.90;;;;;;;15.49;100.00;95377.72;5070305;28;20698;-60
2021/05/28 04:28:28;;;;;;;1999.90;999.90;;;;;;;15.56;100.00;95371.22;5070086;28;20288;-61
2021/05/28 04:30:55;;;;;;;1999.90;999.90;;;;;;;15.66;100.00;95378.66;5070201;28;20671;-62
2021/05/28 04:33:23;;;;;;;1999.90;999.90;;;;;;;15.69;100.00;95378.75;5070287;28;20254;-61
2021/05/28 04:35:50;;;;;;;1999.90;999.90;;;;;;;15.62;100.00;95389.03;5070059;28;20228;-60
2021/05/28 04:38:17;;;;;;;1999.90;999.90;;;;;;;15.60;100.00;95393.81;5069111;28;20188;-62
2021/05/28 04:40:44;;;;;;;1999.90;999.90;;;;;;;15.76;100.00;95396.53;5070144;28;20223;-62
2021/05/28 04:43:11;;;;;;;1999.90;999.90;;;;;;;15.81;100.00;95397.09;5069968;28;20192;-61
2021/05/28 04:45:38;;;;;;;1999.90;999.90;;;;;;;15.57;100.00;95402.34;5070501;28;20203;-60
2021/05/28 04:48:06;;;;;;;1999.90;999.90;;;;;;;15.63;100.00;95411.50;5070068;28;20196;-61
2021/05/28 04:50:36;;;;;;;1999.90;999.90;;;;;;;15.77;100.00;95411.19;5070435;28;20232;-60
2021/05/28 04:53:04;;;;;;;1999.90;999.90;;;;;;;15.87;100.00;95408.13;5070173;28;20680;-60
2021/05/28 04:55:31;;;;;;;1999.90;999.90;;;;;;;15.87;100.00;95400.25;5069646;28;20228;-60
2021/05/28 04:58:01;;;;;;;1999.90;999.90;;;;;;;15.96;100.00;95411.38;5069863;28;20202;-60
2021/05/28 05:00:29;;;;;;;1999.90;999.90;;;;;;;16.07;100.00;95415.09;5069831;28;20239;-60
2021/05/28 05:02:55;;;;;;;1999.90;999.90;;;;;;;15.99;100.00;95412.59;5069774;28;20188;-60
2021/05/28 05:05:23;;;;;;;1999.90;999.90;;;;;;;16.02;100.00;95420.56;5069785;28;20207;-60
2021/05/28 05:07:51;;;;;;;1999.90;999.90;;;;;;;16.07;100.00;95415.09;5069603;28;20192;-62
2021/05/28 05:10:18;;;;;;;1999.90;999.90;;;;;;;16.16;100.00;95415.75;5069690;28;20238;-61
2021/05/28 05:12:44;;;;;;;1999.90;999.90;;;;;;;16.22;100.00;95421.53;5069685;28;20192;-62
2021/05/28 05:15:12;;;;;;;1999.90;999.90;;;;;;;16.35;100.00;95412.53;5069519;28;20280;-60
2021/05/28 05:17:39;;;;;;;1999.90;999.90;;;;;;;16.47;100.00;95414.38;5069925;28;20205;-61
2021/05/28 05:20:08;;;;;;;1999.90;999.90;;;;;;;16.46;100.00;95429.34;5069159;28;20196;-62
2021/05/28 05:22:35;;;;;;;1999.90;999.90;;;;;;;16.64;100.00;95419.38;5069750;28;20184;-61
2021/05/28 05:25:03;;;;;;;1999.90;999.90;;;;;;;16.86;100.00;95421.50;5069596;28;20575;-60
2021/05/28 05:27:30;;;;;;;1999.90;999.90;;;;;;;17.08;100.00;95417.56;5069819;28;20200;-60
2021/05/28 05:29:57;;;;;;;1999.90;999.90;;;;;;;17.35;100.00;95429.13;5069512;28;20584;-61
2021/05/28 05:32:24;;;;;;;1999.90;999.90;;;;;;;17.50;100.00;95431.00;5069629;28;20254;-61
2021/05/28 05:34:51;;;;;;;1999.90;999.90;;;;;;;17.31;100.00;95429.03;5069877;28;20325;-60
2021/05/28 05:37:18;;;;;;;1999.90;999.90;;;;;;;17.26;100.00;95429.28;5069451;28;20192;-61
2021/05/28 05:39:44;;;;;;;1999.90;999.90;;;;;;;17.28;100.00;95434.22;5069526;28;20200;-59
2021/05/28 05:42:12;;;;;;;1999.90;999.90;;;;;;;17.50;100.00;95431.00;5069774;28;20199;-61
2021/05/28 05:44:39;;;;;;;1999.90;999.90;;;;;;;17.71;100.00;95434.19;5069681;28;20244;-62
2021/05/28 05:47:06;;;;;;;1999.90;999.90;;;;;;;17.97;100.00;95434.44;5069424;28;20192;-60
2021/05/28 05:49:34;;;;;;;1999.90;999.90;;;;;;;18.11;100.00;95438.47;5070308;28;20253;-61
2021/05/28 05:52:01;;;;;;;1999.90;999.90;;;;;;;18.29;99.56;95434.34;5073055;28;20204;-61
2021/05/28 05:54:28;;;;;;;1999.90;999.90;;;;;;;18.37;97.04;95431.53;5073183;28;20319;-61
2021/05/28 05:56:55;;;;;;;1999.90;999.90;;;;;;;18.90;100.00;95432.63;5072753;28;20197;-61
2021/05/28 05:59:23;;;;;;;1999.90;999.90;;;;;;;18.99;95.37;95431.66;5072790;28;20338;-62
2021/05/28 06:01:50;;;;;;;1999.90;999.90;;;;;;;19.16;95.79;95434.63;5073173;28;20223;-61
2021/05/28 06:04:17;;;;;;;1999.90;999.90;;;;;;;19.29;95.50;95437.84;5072716;28;20200;-60
2021/05/28 06:06:44;;;;;;;1999.90;999.90;;;;;;;19.45;91.13;95433.28;5072728;28;20193;-61
2021/05/28 06:09:11;;;;;;;1999.90;999.90;;;;;;;19.80;90.37;95443.66;5072554;28;20672;-61
2021/05/28 06:11:39;;;;;;;1999.90;999.90;;;;;;;20.08;85.55;95449.34;5072667;28;20671;-61
2021/05/28 06:14:06;;;;;;;1999.90;999.90;;;;;;;20.23;87.27;95445.03;5072533;28;20197;-60
2021/05/28 06:16:34;;;;;;;1999.90;999.90;;;;;;;20.33;86.99;95447.09;5072455;28;20608;-62
2021/05/28 06:19:01;;;;;;;1999.90;999.90;;;;;;;20.53;85.18;95445.88;5072512;28;20200;-63
2021/05/28 06:21:28;;;;;;;1999.90;999.90;;;;;;;20.42;83.96;95447.59;5080001;28;20232;-61
2021/05/28 06:23:55;;;;;;;1999.90;999.90;;;;;;;20.13;82.40;95454.34;5072433;28;20212;-61
2021/05/28 06:26:22;;;;;;;1999.90;999.90;;;;;;;20.05;84.46;95463.25;5072433;28;20308;-61
2021/05/28 06:28:48;;;;;;;1999.90;999.90;;;;;;;19.92;85.06;95464.59;5072507;28;20231;-61
2021/05/28 06:31:15;;;;;;;1999.90;999.90;;;;;;;20.26;87.75;95460.19;5072531;28;20296;-61
2021/05/28 06:33:43;;;;;;;1999.90;999.90;;;;;;;20.37;84.98;95460.38;5072404;28;20310;-62
2021/05/28 06:36:13;;;;;;;1999.90;999.90;;;;;;;20.25;82.24;95458.66;5072481;28;20311;-61
2021/05/28 06:38:40;;;;;;;1999.90;999.90;;;;;;;19.94;84.40;95451.00;5072121;28;20204;-61
2021/05/28 06:41:07;;;;;;;1999.90;999.90;;;;;;;19.94;81.23;95451.00;5072355;28;20264;-61
2021/05/28 06:43:34;;;;;;;1999.90;999.90;;;;;;;20.20;84.90;95446.53;5072177;28;20296;-63
2021/05/28 06:46:01;;;;;;;1999.90;999.90;;;;;;;20.42;79.73;95434.41;5071863;28;20197;-61
2021/05/28 06:48:27;;;;;;;1999.90;999.90;;;;;;;20.32;78.64;95450.13;5072055;28;20200;-61
2021/05/28 06:50:55;;;;;;;1999.90;999.90;;;;;;;20.50;79.41;95441.31;5071992;28;20200;-60
2021/05/28 06:53:22;;;;;;;1999.90;999.90;;;;;;;20.61;79.34;95439.56;5072033;28;20205;-62
2021/05/28 06:55:49;;;;;;;1999.90;999.90;;;;;;;21.06;80.47;95437.84;5071696;28;20320;-60
2021/05/28 06:58:17;;;;;;;1999.90;999.90;;;;;;;21.11;77.68;95440.16;5072030;28;20204;-61
2021/05/28 07:00:43;;;;;;;1999.90;999.90;;;;;;;21.27;78.31;95440.72;5071161;28;20219;-61
2021/05/28 07:03:10;;;;;;;1999.90;999.90;;;;;;;20.73;76.96;95438.56;5071723;28;20197;-60
2021/05/28 07:05:37;;;;;;;1999.90;999.90;;;;;;;20.98;79.11;95438.84;5071937;28;20284;-61
2021/05/28 07:08:06;;;;;;;1999.90;999.90;;;;;;;21.00;75.03;95439.28;5071559;28;20192;-60
2021/05/28 07:10:33;;;;;;;1999.90;999.90;;;;;;;20.86;74.42;95436.47;5071632;28;20275;-62
2021/05/28 07:13:00;;;;;;;1999.90;999.90;;;;;;;21.02;72.14;95442.31;5071347;28;20193;-64
2021/05/28 07:15:27;;;;;;;1999.90;999.90;;;;;;;21.05;73.09;95436.31;5070844;28;20835;-62
2021/05/28 07:17:54;;;;;;;1999.90;999.90;;;;;;;20.61;73.23;95444.84;5071256;28;20556;-60
2021/05/28 07:20:21;;;;;;;1999.90;999.90;;;;;;;20.44;75.03;95445.38;5071291;28;20660;-61
2021/05/28 07:22:48;;;;;;;1999.90;999.90;;;;;;;20.12;73.83;95450.16;5070822;28;20766;-61
2021/05/28 07:25:16;;;;;;;1999.90;999.90;;;;;;;19.84;75.77;95435.78;5071050;28;20232;-61
2021/05/28 07:27:43;;;;;;;1999.90;999.90;;;;;;;20.03;76.00;95439.09;5071179;28;20192;-63
2021/05/28 07:30:11;;;;;;;1999.90;999.90;;;;;;;20.17;75.61;95433.28;5071158;28;20299;-61
2021/05/28 07:32:39;;;;;;;1999.90;999.90;;;;;;;20.72;76.09;95431.03;5071201;28;20223;-60
2021/05/28 07:35:07;;;;;;;1999.90;999.90;;;;;;;21.08;71.71;95430.28;5071263;28;20267;-60
2021/05/28 07:37:34;;;;;;;1999.90;999.90;;;;;;;20.85;74.10;95435.72;5070840;28;20589;-61
2021/05/28 07:40:01;;;;;;;1999.90;999.90;;;;;;;20.82;75.53;95427.75;5070955;28;20200;-62
2021/05/28 07:42:28;;;;;;;1999.90;999.90;;;;;;;20.44;71.48;95434.06;5070913;28;21115;-61
2021/05/28 07:44:55;;;;;;;1999.90;999.90;;;;;;;20.37;74.05;95434.75;5070770;28;20188;-60
2021/05/28 07:47:22;;;;;;;1999.90;999.90;;;;;;;20.12;75.01;95444.88;5071120;28;20199;-62
2021/05/28 07:49:49;;;;;;;1999.90;999.90;;;;;;;20.01;73.26;95437.94;5070672;28;20586;-61
2021/05/28 07:52:16;;;;;;;1999.90;999.90;;;;;;;19.67;74.99;95437.81;5070603;28;20741;-60
2021/05/28 07:54:43;;;;;;;1999.90;999.90;;;;;;;19.51;75.32;95450.34;5070518;28;20247;-61
2021/05/28 07:57:10;;;;;;;1999.90;999.90;;;;;;;19.23;76.90;95452.44;5070619;28;20594;-62
2021/05/28 07:59:37;;;;;;;1999.90;999.90;;;;;;;19.14;78.82;95449.25;5070618;28;20211;-60
2021/05/28 08:02:04;;;;;;;1999.90;999.90;;;;;;;19.03;81.13;95456.94;5070781;28;20287;-61
2021/05/28 08:04:31;;;;;;;1999.90;999.90;;;;;;;18.77;79.90;95460.22;5070558;28;20193;-61
2021/05/28 08:06:58;;;;;;;1999.90;999.90;;;;;;;18.56;80.79;95467.69;5070558;28;20228;-60
2021/05/28 08:09:25;;;;;;;1999.90;999.90;;;;;;;18.37;82.52;95465.75;5070433;28;20211;-61
2021/05/28 08:11:51;;;;;;;1999.90;999.90;;;;;;;18.61;84.08;95467.41;5070644;28;20192;-60
2021/05/28 08:14:18;;;;;;;1999.90;999.90;;;;;;;18.90;81.67;95468.75;5070514;28;20275;-61
2021/05/28 08:16:46;;;;;;;1999.90;999.90;;;;;;;19.26;82.09;95478.84;5070329;28;20315;-63
2021/05/28 08:19:13;;;;;;;1999.90;999.90;;;;;;;18.79;80.42;95486.97;5070543;28;20204;-60
2021/05/28 08:21:40;;;;;;;1999.90;999.90;;;;;;;18.31;84.13;95500.56;5070171;28;20236;-62
2021/05/28 08:24:07;;;;;;;1999.90;999.90;;;;;;;17.79;84.56;95501.59;5070422;28;20232;-61
2021/05/28 08:26:34;;;;;;;1999.90;999.90;;;;;;;17.44;86.50;95508.53;5070645;28;20200;-60
2021/05/28 08:29:01;;;;;;;1999.90;999.90;;;;;;;17.31;86.23;95510.47;5070398;28;20203;-61
2021/05/28 08:31:29;;;;;;;1999.90;999.90;;;;;;;17.03;86.84;95518.34;5070184;28;20285;-60
2021/05/28 08:33:57;;;;;;;1999.90;999.90;;;;;;;16.81;88.32;95531.19;5070950;28;20227;-61
2021/05/28 08:36:24;;;;;;;1999.90;999.90;;;;;;;16.45;89.39;95524.09;5070046;28;20759;-61
2021/05/28 08:38:50;;;;;;;1999.90;999.90;;;;;;;16.31;89.69;95527.06;5070067;28;20193;-60
2021/05/28 08:41:18;;;;;;;1999.90;999.90;;;;;;;16.18;89.16;95533.41;5070060;28;20196;-61
2021/05/28 08:43:45;;;;;;;1999.90;999.90;;;;;;;16.04;89.72;95531.09;5069935;28;20758;-60
2021/05/28 08:46:13;;;;;;;1999.90;999.90;;;;;;;16.10;90.94;95536.88;5070094;28;20262;-61
2021/05/28 08:48:40;;;;;;;1999.90;999.90;;;;;;;15.68;89.47;95549.38;5069938;28;20600;-61
2021/05/28 08:51:09;;;;;;;1999.90;999.90;;;;;;;15.43;91.07;95543.28;5069819;28;20275;-60
2021/05/28 08:53:35;;;;;;;1999.90;999.90;;;;;;;15.15;91.84;95550.13;5069902;28;20192;-60
2021/05/28 08:56:08;;;;;;;1999.90;999.90;;;;;;;15.18;92.74;95552.88;5069903;28;20228;-59
2021/05/28 08:58:35;;;;;;;1999.90;999.90;;;;;;;15.40;91.30;95557.75;5069717;28;20582;-60
2021/05/28 09:01:02;;;;;;;1999.90;999.90;;;;;;;15.41;91.02;95571.63;5069941;28;20206;-59
2021/05/28 09:03:31;;;;;;;1999.90;999.90;;;;;;;15.34;90.34;95576.63;5069703;28;20226;-60
2021/05/28 09:06:00;;;;;;;1999.90;999.90;;;;;;;15.42;90.01;95583.63;5069820;28;20815;-59
2021/05/28 09:08:29;;;;;;;1999.90;999.90;;;;;;;15.26;90.33;95599.16;5070146;28;20208;-60
2021/05/28 09:11:08;;;;;;;1999.90;999.90;;;;;;;14.97;92.33;95601.84;5069648;28;20222;-61
2021/05/28 09:13:43;;;;;;;1999.90;999.90;;;;;;;14.89;91.28;95594.81;5069874;28;20208;-61
2021/05/28 09:16:12;;;;;;;1999.90;999.90;;;;;;;14.81;92.80;95595.63;5069664;28;20258;-61
2021/05/28 09:18:47;;;;;;;1999.90;999.90;;;;;;;14.71;92.72;95595.97;5069665;28;20578;-61
2021/05/28 09:21:19;;;;;;;1999.90;999.90;;;;;;;14.70;91.99;95615.38;5069360;28;20570;-61
2021/05/28 09:23:47;;;;;;;1999.90;999.90;;;;;;;14.56;92.45;95616.38;5069647;28;20246;-59
2021/05/28 09:26:14;;;;;;;1999.90;999.90;;;;;;;14.52;94.26;95605.00;5073675;28;20205;-60
2021/05/28 09:28:44;;;;;;;1999.90;999.90;;;;;;;14.71;93.64;95607.22;5072993;28;20203;-60
2021/05/28 09:31:15;;;;;;;1999.90;999.90;;;;;;;14.75;91.83;95617.81;5072268;28;20279;-60
2021/05/28 09:33:45;;;;;;;1999.90;999.90;;;;;;;14.82;92.13;95605.78;5073458;28;20248;-60
2021/05/28 09:36:15;;;;;;;1999.90;999.90;;;;;;;14.94;89.98;95611.06;5073507;28;20253;-60
2021/05/28 09:39:04;;;;;;;1999.90;999.90;;;;;;;14.90;90.29;95615.41;5073382;28;20652;-62
2021/05/28 09:41:50;;;;;;;1999.90;999.90;;;;;;;14.88;89.98;95617.59;5073264;28;20275;-61
2021/05/28 09:44:21;;;;;;;1999.90;999.90;;;;;;;14.95;89.50;95623.09;5071993;28;20239;-60
2021/05/28 09:47:01;;;;;;;1999.90;999.90;;;;;;;15.01;88.48;95621.06;5073325;28;20228;-60
2021/05/28 09:49:31;;;;;;;1999.90;999.90;;;;;;;14.98;88.14;95606.00;5073041;28;20275;-60
2021/05/28 09:52:07;;;;;;;1999.90;999.90;;;;;;;15.13;87.56;95612.53;5073378;28;20292;-58
2021/05/28 09:54:35;;;;;;;1999.90;999.90;;;;;;;15.25;87.24;95609.94;5072920;28;20299;-60
2021/05/28 09:57:02;;;;;;;1999.90;999.90;;;;;;;15.24;87.79;95617.03;5072835;28;20199;-60
2021/05/28 09:59:46;;;;;;;1999.90;999.90;;;;;;;15.51;87.44;95613.16;5072895;28;20197;-60
2021/05/28 10:02:24;;;;;;;1999.90;999.90;;;;;;;15.57;86.56;95611.13;5072810;28;20196;-60
2021/05/28 10:04:55;;;;;;;1999.90;999.90;;;;;;;15.54;88.31;95606.53;5072831;28;20620;-60
2021/05/28 10:07:23;;;;;;;1999.90;999.90;;;;;;;15.60;87.63;95605.22;5072714;28;20683;-60
2021/05/28 10:09:53;;;;;;;1999.90;999.90;;;;;;;15.19;89.02;95613.88;5073034;28;20201;-60
2021/05/28 10:12:21;;;;;;;1999.90;999.90;;;;;;;15.29;90.83;95600.41;5072642;28;20188;-60
2021/05/28 10:14:49;;;;;;;1999.90;999.90;;;;;;;15.30;89.68;95607.91;5072571;28;20544;-61
2021/05/28 10:17:17;;;;;;;1999.90;999.90;;;;;;;15.37;87.36;95604.78;5072822;28;20228;-59
2021/05/28 10:19:45;;;;;;;1999.90;999.90;;;;;;;15.54;88.20;95606.53;5072834;28;20201;-61
2021/05/28 10:22:13;;;;;;;1999.90;999.90;;;;;;;15.54;87.36;95612.53;5072412;28;20225;-60
2021/05/28 10:24:39;;;;;;;1999.90;999.90;;;;;;;15.52;87.21;95619.19;5072279;28;20216;-60
2021/05/28 10:27:08;;;;;;;1999.90;999.90;;;;;;;15.52;88.07;95613.94;5072488;28;20189;-60
2021/05/28 10:29:35;;;;;;;1999.90;999.90;;;;;;;15.52;86.53;95625.19;5072517;28;20199;-61
2021/05/28 10:32:03;;;;;;;1999.90;999.90;;;;;;;15.45;85.83;95617.81;5072516;28;20261;-62
2021/05/28 10:34:31;;;;;;;1999.90;999.90;;;;;;;15.57;86.51;95619.75;5072326;28;20199;-61
2021/05/28 10:36:58;;;;;;;1999.90;999.90;;;;;;;15.60;85.19;95615.72;5070876;28;20213;-61
2021/05/28 10:39:27;;;;;;;1999.90;999.90;;;;;;;15.53;85.82;95616.25;5072105;28;20301;-61
2021/05/28 10:41:55;;;;;;;1999.90;999.90;;;;;;;15.54;85.47;95620.41;5072355;28;20218;-61
2021/05/28 10:44:26;;;;;;;1999.90;999.90;;;;;;;15.60;86.20;95610.47;5072046;28;20196;-60
2021/05/28 10:47:19;;;;;;;1999.90;999.90;;;;;;;15.77;85.13;95615.56;5072174;28;20279;-60
2021/05/28 10:49:47;;;;;;;1999.90;999.90;;;;;;;15.62;84.22;95616.16;5071938;28;20196;-61
2021/05/28 10:52:29;;;;;;;1999.90;999.90;;;;;;;15.57;85.30;95611.13;5072360;28;20196;-62
2021/05/28 10:54:58;;;;;;;1999.90;999.90;;;;;;;15.46;85.91;95627.19;5072015;28;20697;-61